Time;durP1;ratioP1;P1;durP2;ratioP2;P2;SDS_P1;SDS_P2;PMS_P1;PMS_P2;Temp;Humidity;BMP_temperature;BMP_pressure;BME280_temperature;BME280_humidity;BME280_pressure;Samples;Min_cycle;Max_cycle;Signal;HPM_P1;HPM_P2
2021/05/19 00:00:19;;;;;;;11.18;7.62;;;;;;;;;;367869;109;1961960;-73
2021/05/19 00:01:24;;;;;;;10.58;7.47;;;;;;;;;;369898;109;1962027;-72
2021/05/19 00:02:29;;;;;;;11.38;7.62;;;;;;;;;;368057;110;1961972;-72
2021/05/19 00:03:34;;;;;;;11.37;7.12;;;;;;;;;;365367;110;1962941;-71
2021/05/19 00:04:39;;;;;;;10.33;6.79;;;;;;;;;;365690;110;1963908;-72
2021/05/19 00:05:44;;;;;;;13.78;7.63;;;;;;;;;;363345;112;1962007;-72
2021/05/19 00:06:49;;;;;;;11.39;7.43;;;;;;;;;;366834;109;1962007;-72
2021/05/19 00:07:55;;;;;;;10.71;7.89;;;;;;;;;;368036;109;1961985;-73
2021/05/19 00:09:00;;;;;;;11.29;7.91;;;;;;;;;;368664;110;1961963;-72
2021/05/19 00:10:07;;;;;;;10.54;7.04;;;;;;;;;;367239;110;1962025;-72
2021/05/19 00:11:19;;;;;;;10.03;7.24;;;;;;;;;;407436;101;1985992;-72
2021/05/19 00:12:24;;;;;;;14.14;8.34;;;;;;;;;;391700;103;1961913;-72
2021/05/19 00:13:31;;;;;;;12.18;8.47;;;;;;;;;;387878;103;1964006;-71
2021/05/19 00:14:43;;;;;;;15.24;8.99;;;;;;;;;;360036;106;1994998;-71
2021/05/19 00:15:48;;;;;;;12.47;7.91;;;;;;;;;;337271;107;1966000;-72
2021/05/19 00:16:53;;;;;;;13.24;8.32;;;;;;;;;;346473;107;1961913;-72
2021/05/19 00:18:05;;;;;;;13.72;8.84;;;;;;;;;;352419;109;1961906;-71
2021/05/19 00:19:10;;;;;;;12.14;8.05;;;;;;;;;;367446;107;1962008;-71
2021/05/19 00:20:22;;;;;;;11.88;8.09;;;;;;;;;;393407;104;1985927;-73
2021/05/19 00:21:27;;;;;;;12.23;8.24;;;;;;;;;;377892;107;1962972;-70
2021/05/19 00:22:32;;;;;;;11.58;8.27;;;;;;;;;;369204;108;1964948;-69
2021/05/19 00:23:37;;;;;;;13.73;9.02;;;;;;;;;;370168;107;1962076;-71
2021/05/19 00:24:49;;;;;;;12.78;8.07;;;;;;;;;;368972;103;1989983;-72
2021/05/19 00:25:54;;;;;;;12.33;7.99;;;;;;;;;;346944;105;1968973;-69
2021/05/19 00:26:59;;;;;;;12.13;8.42;;;;;;;;;;336691;105;1962965;-71
2021/05/19 00:28:05;;;;;;;12.84;8.69;;;;;;;;;;321305;108;2032975;-71
2021/05/19 00:30:24;;;;;;;12.28;9.49;;;;;;;;;;320179;106;2270090;-71
2021/05/19 00:31:33;;;;;;;13.54;8.54;;;;;;;;;;331066;108;1963035;-71
2021/05/19 00:32:39;;;;;;;17.15;8.82;;;;;;;;;;330866;107;2610980;-70
2021/05/19 00:33:44;;;;;;;16.88;8.75;;;;;;;;;;327097;107;1983038;-71
2021/05/19 00:34:49;;;;;;;11.28;8.78;;;;;;;;;;348540;109;1962998;-71
2021/05/19 00:36:20;;;;;;;12.97;9.33;;;;;;;;;;413181;99;1986887;-71
2021/05/19 00:37:25;;;;;;;11.74;8.27;;;;;;;;;;389077;101;1962028;-70
2021/05/19 00:38:31;;;;;;;14.22;9.47;;;;;;;;;;383714;103;1962007;-73
2021/05/19 00:39:36;;;;;;;14.87;9.22;;;;;;;;;;384865;101;1962058;-71
2021/05/19 00:40:42;;;;;;;12.94;9.56;;;;;;;;;;389497;101;1961872;-70
2021/05/19 00:41:47;;;;;;;13.28;8.96;;;;;;;;;;385767;104;1962066;-72
2021/05/19 00:42:53;;;;;;;13.45;9.12;;;;;;;;;;387574;102;1963967;-71
2021/05/19 00:44:03;;;;;;;12.51;8.99;;;;;;;;;;386735;102;1962979;-73
2021/05/19 00:45:15;;;;;;;12.24;8.38;;;;;;;;;;379701;106;1986988;-72
2021/05/19 00:46:23;;;;;;;12.68;8.31;;;;;;;;;;362289;109;1968998;-72
2021/05/19 00:47:33;;;;;;;11.81;8.34;;;;;;;;;;359553;110;1961950;-72
2021/05/19 00:48:45;;;;;;;16.18;9.53;;;;;;;;;;386700;104;1986011;-72
2021/05/19 00:49:51;;;;;;;13.41;8.51;;;;;;;;;;376524;106;1961988;-71
2021/05/19 00:50:57;;;;;;;12.97;8.86;;;;;;;;;;374187;105;1961955;-71
2021/05/19 00:52:02;;;;;;;12.43;9.22;;;;;;;;;;372820;105;1961960;-71
2021/05/19 00:53:14;;;;;;;12.33;9.11;;;;;;;;;;382144;106;1985908;-72
2021/05/19 00:54:20;;;;;;;11.99;8.11;;;;;;;;;;340788;109;2408978;-72
2021/05/19 00:55:26;;;;;;;12.64;8.47;;;;;;;;;;338960;110;1961975;-72
2021/05/19 00:56:32;;;;;;;12.23;9.12;;;;;;;;;;363389;109;1961947;-72
2021/05/19 00:57:37;;;;;;;12.83;9.44;;;;;;;;;;367488;110;1961980;-72
2021/05/19 00:58:42;;;;;;;11.13;9.08;;;;;;;;;;364289;109;1962014;-72
2021/05/19 00:59:51;;;;;;;16.77;9.21;;;;;;;;;;361990;111;1961926;-72
2021/05/19 01:00:58;;;;;;;14.58;9.28;;;;;;;;;;364239;109;1960759;-73
2021/05/19 01:02:05;;;;;;;12.03;8.70;;;;;;;;;;334424;111;2422958;-71
2021/05/19 01:03:10;;;;;;;13.33;8.91;;;;;;;;;;319052;110;2005816;-71
2021/05/19 01:04:16;;;;;;;13.14;8.86;;;;;;;;;;333373;109;1962916;-73
2021/05/19 01:09:36;;;;;;;12.19;8.45;;;;;;;;;;377207;107;1964629;-71
2021/05/19 01:10:43;;;;;;;11.81;8.11;;;;;;;;;;360000;109;1962040;-71
2021/05/19 01:11:48;;;;;;;12.97;8.34;;;;;;;;;;357744;110;1962089;-71
2021/05/19 01:12:53;;;;;;;13.89;8.53;;;;;;;;;;362686;110;1962932;-71
2021/05/19 01:13:59;;;;;;;10.82;7.73;;;;;;;;;;354440;112;1961930;-71
2021/05/19 01:15:04;;;;;;;11.52;7.81;;;;;;;;;;353893;112;1963012;-71
2021/05/19 01:16:10;;;;;;;13.12;9.10;;;;;;;;;;350116;112;1962921;-71
2021/05/19 01:17:17;;;;;;;11.91;7.68;;;;;;;;;;337460;116;2928957;-71
2021/05/19 01:18:22;;;;;;;11.38;7.42;;;;;;;;;;341867;117;1961860;-71
2021/05/19 01:19:34;;;;;;;14.71;8.45;;;;;;;;;;393477;104;1987040;-69
2021/05/19 01:20:40;;;;;;;13.57;8.12;;;;;;;;;;375764;107;1962046;-71
2021/05/19 01:21:47;;;;;;;11.84;8.88;;;;;;;;;;330770;107;2722981;-68
2021/05/19 01:22:53;;;;;;;11.28;8.88;;;;;;;;;;376543;106;1961935;-70
2021/05/19 01:23:58;;;;;;;11.64;7.90;;;;;;;;;;370381;107;1961948;-72
2021/05/19 01:25:04;;;;;;;11.98;8.75;;;;;;;;;;368587;107;1961982;-72
2021/05/19 01:26:10;;;;;;;11.77;7.69;;;;;;;;;;352197;113;1962038;-72
2021/05/19 01:27:17;;;;;;;13.84;8.07;;;;;;;;;;315317;109;2815956;-71
2021/05/19 01:28:28;;;;;;;11.42;8.21;;;;;;;;;;395539;101;2071920;-73
2021/05/19 01:29:34;;;;;;;11.66;7.97;;;;;;;;;;376895;105;1969975;-72
2021/05/19 01:30:40;;;;;;;12.57;8.05;;;;;;;;;;378216;105;1961993;-70
2021/05/19 01:31:47;;;;;;;15.22;7.76;;;;;;;;;;347725;106;2483869;-71
2021/05/19 01:32:52;;;;;;;12.63;8.19;;;;;;;;;;371901;106;1961961;-73
2021/05/19 01:33:57;;;;;;;12.43;8.72;;;;;;;;;;374672;106;1962829;-71
2021/05/19 01:35:03;;;;;;;14.18;9.04;;;;;;;;;;375048;107;1966926;-72
2021/05/19 01:36:08;;;;;;;12.18;9.12;;;;;;;;;;372279;108;1962005;-73
2021/05/19 01:37:14;;;;;;;12.59;9.47;;;;;;;;;;371637;108;1960919;-71
2021/05/19 01:38:21;;;;;;;10.98;8.03;;;;;;;;;;372108;107;1960975;-71
2021/05/19 01:39:27;;;;;;;11.79;9.19;;;;;;;;;;361378;108;2940037;-71
2021/05/19 01:40:58;;;;;;;12.84;8.40;;;;;;;;;;412991;99;1986016;-72
2021/05/19 01:42:03;;;;;;;13.80;8.51;;;;;;;;;;393637;101;1962930;-71
2021/05/19 01:43:08;;;;;;;11.92;8.54;;;;;;;;;;392239;101;1961993;-72
2021/05/19 01:44:17;;;;;;;11.19;8.81;;;;;;;;;;386630;101;1961973;-71
2021/05/19 01:45:30;;;;;;;12.79;8.71;;;;;;;;;;378800;106;1961947;-71
2021/05/19 01:46:43;;;;;;;11.73;8.80;;;;;;;;;;354346;104;2604023;-71
2021/05/19 01:47:48;;;;;;;12.40;9.98;;;;;;;;;;351505;106;1968681;-72
2021/05/19 01:48:55;;;;;;;10.98;8.74;;;;;;;;;;368829;108;1961993;-71
2021/05/19 01:50:11;;;;;;;13.35;8.38;;;;;;;;;;393195;104;1986958;-71
2021/05/19 01:51:18;;;;;;;11.13;8.68;;;;;;;;;;373347;107;1963046;-72
2021/05/19 01:52:25;;;;;;;13.65;8.66;;;;;;;;;;375648;106;1963955;-70
2021/05/19 01:53:32;;;;;;;11.87;7.98;;;;;;;;;;372249;107;1960848;-71
2021/05/19 01:54:39;;;;;;;12.05;7.39;;;;;;;;;;362100;108;2925971;-72
2021/05/19 01:55:45;;;;;;;11.38;8.34;;;;;;;;;;371580;107;1961940;-72
2021/05/19 01:56:52;;;;;;;11.31;8.47;;;;;;;;;;370862;108;1962021;-71
2021/05/19 01:57:58;;;;;;;12.61;9.09;;;;;;;;;;318316;108;2885048;-73
2021/05/19 01:59:05;;;;;;;12.33;9.06;;;;;;;;;;371518;108;1961896;-71
2021/05/19 02:00:11;;;;;;;13.40;8.51;;;;;;;;;;370322;109;1962926;-72
2021/05/19 02:01:24;;;;;;;13.05;8.69;;;;;;;;;;366534;108;1962816;-71
2021/05/19 02:02:32;;;;;;;11.45;8.73;;;;;;;;;;363888;110;1962034;-72
2021/05/19 02:03:38;;;;;;;12.07;8.77;;;;;;;;;;337700;109;2535955;-71
2021/05/19 02:04:49;;;;;;;14.06;8.91;;;;;;;;;;343738;107;2453022;-72
2021/05/19 02:05:54;;;;;;;12.43;9.04;;;;;;;;;;370598;107;1961960;-72
2021/05/19 02:07:00;;;;;;;12.55;8.86;;;;;;;;;;371692;107;1961858;-71
2021/05/19 02:08:10;;;;;;;12.22;8.91;;;;;;;;;;370402;107;1961982;-72
2021/05/19 02:09:18;;;;;;;14.88;9.32;;;;;;;;;;367364;109;1962960;-72
2021/05/19 02:10:25;;;;;;;14.33;8.78;;;;;;;;;;371191;108;1961977;-73
2021/05/19 02:11:30;;;;;;;12.64;9.02;;;;;;;;;;368733;108;1962025;-71
2021/05/19 02:12:35;;;;;;;14.79;9.08;;;;;;;;;;373518;107;1961973;-70
2021/05/19 02:13:40;;;;;;;11.83;8.63;;;;;;;;;;370928;107;1961850;-71
2021/05/19 02:14:47;;;;;;;11.92;9.37;;;;;;;;;;371831;109;1962949;-70
2021/05/19 02:15:54;;;;;;;15.71;9.13;;;;;;;;;;323066;108;2756556;-71
2021/05/19 02:17:00;;;;;;;15.96;10.03;;;;;;;;;;371567;109;1961910;-71
2021/05/19 02:18:05;;;;;;;13.88;9.58;;;;;;;;;;369412;109;1961952;-72
2021/05/19 02:19:12;;;;;;;15.62;9.68;;;;;;;;;;370780;107;1961914;-70
2021/05/19 02:20:19;;;;;;;14.44;9.46;;;;;;;;;;365029;110;1961953;-71
2021/05/19 02:21:24;;;;;;;15.69;9.98;;;;;;;;;;330390;109;1961931;-72
2021/05/19 02:22:31;;;;;;;11.08;8.76;;;;;;;;;;368823;107;1962029;-72
2021/05/19 02:23:36;;;;;;;14.07;10.13;;;;;;;;;;371009;107;1961888;-72
2021/05/19 02:24:41;;;;;;;13.44;9.42;;;;;;;;;;369241;107;1962931;-72
2021/05/19 02:25:48;;;;;;;13.10;9.62;;;;;;;;;;370127;108;1962053;-71
2021/05/19 02:26:53;;;;;;;13.81;9.87;;;;;;;;;;370050;107;1962050;-72
2021/05/19 02:27:59;;;;;;;13.28;9.38;;;;;;;;;;330019;108;1978921;-71
2021/05/19 02:29:06;;;;;;;13.53;9.58;;;;;;;;;;362107;110;1961838;-72
2021/05/19 02:30:14;;;;;;;12.45;9.36;;;;;;;;;;372028;108;1960829;-72
2021/05/19 02:31:19;;;;;;;12.54;9.31;;;;;;;;;;345245;105;2395842;-72
2021/05/19 02:32:25;;;;;;;17.66;11.99;;;;;;;;;;344496;107;1960822;-72
2021/05/19 02:33:31;;;;;;;21.03;14.75;;;;;;;;;;370176;107;1961968;-72
2021/05/19 02:34:36;;;;;;;20.59;13.99;;;;;;;;;;357568;111;1961961;-73
2021/05/19 02:35:48;;;;;;;16.66;10.96;;;;;;;;;;394041;103;1985902;-71
2021/05/19 02:36:54;;;;;;;15.08;10.85;;;;;;;;;;328529;110;2628002;-72
2021/05/19 02:38:00;;;;;;;14.30;10.24;;;;;;;;;;359731;107;1961940;-71
2021/05/19 02:39:08;;;;;;;13.99;10.21;;;;;;;;;;364013;107;1961971;-74
2021/05/19 02:40:15;;;;;;;14.28;10.74;;;;;;;;;;339106;107;2584985;-72
2021/05/19 02:41:21;;;;;;;14.27;10.37;;;;;;;;;;376030;107;1962947;-72
2021/05/19 02:42:26;;;;;;;14.88;10.18;;;;;;;;;;373911;107;1962000;-72
2021/05/19 02:43:32;;;;;;;13.76;10.67;;;;;;;;;;367312;110;1962040;-72
2021/05/19 02:44:37;;;;;;;15.28;10.86;;;;;;;;;;365999;107;1961939;-73
2021/05/19 02:45:42;;;;;;;14.42;10.91;;;;;;;;;;378773;107;1961866;-72
2021/05/19 02:46:47;;;;;;;14.10;10.34;;;;;;;;;;374167;107;1962883;-70
2021/05/19 02:47:52;;;;;;;13.24;9.74;;;;;;;;;;376416;107;1964004;-72
2021/05/19 02:49:03;;;;;;;13.28;9.75;;;;;;;;;;377557;107;1962019;-72
2021/05/19 02:50:10;;;;;;;16.30;10.57;;;;;;;;;;376016;106;1960983;-72
2021/05/19 02:51:17;;;;;;;13.68;10.43;;;;;;;;;;354534;107;2291904;-73
2021/05/19 02:52:22;;;;;;;14.46;10.57;;;;;;;;;;373034;107;1961881;-72
2021/05/19 02:53:29;;;;;;;15.56;10.69;;;;;;;;;;365869;108;1962947;-73
2021/05/19 02:54:34;;;;;;;14.86;10.93;;;;;;;;;;369707;107;1963070;-72
2021/05/19 02:55:49;;;;;;;14.00;10.16;;;;;;;;;;397801;104;2004878;-71
2021/05/19 02:56:56;;;;;;;14.54;10.72;;;;;;;;;;370554;105;2879982;-72
2021/05/19 02:58:01;;;;;;;15.84;10.87;;;;;;;;;;367761;105;1962021;-71
2021/05/19 02:59:07;;;;;;;15.57;11.70;;;;;;;;;;370604;106;1961927;-72
2021/05/19 03:00:13;;;;;;;14.61;11.37;;;;;;;;;;369209;109;1961947;-72
2021/05/19 03:01:18;;;;;;;17.54;11.63;;;;;;;;;;379621;105;1961955;-72
2021/05/19 03:02:24;;;;;;;18.61;12.48;;;;;;;;;;374890;108;1961969;-72
2021/05/19 03:03:30;;;;;;;14.91;11.20;;;;;;;;;;374794;106;1961999;-73
2021/05/19 03:04:35;;;;;;;15.19;11.21;;;;;;;;;;376205;106;1961936;-73
2021/05/19 03:05:41;;;;;;;15.43;11.03;;;;;;;;;;333991;106;2690911;-72
2021/05/19 03:06:47;;;;;;;15.17;11.22;;;;;;;;;;362937;106;1961983;-72
2021/05/19 03:07:52;;;;;;;13.59;11.21;;;;;;;;;;374566;107;1963938;-70
2021/05/19 03:08:58;;;;;;;15.27;10.96;;;;;;;;;;375328;106;1963012;-73
2021/05/19 03:10:04;;;;;;;15.19;10.20;;;;;;;;;;372518;107;1962004;-72
2021/05/19 03:11:09;;;;;;;15.01;11.13;;;;;;;;;;375202;107;1962059;-73
2021/05/19 03:12:14;;;;;;;13.27;10.64;;;;;;;;;;378783;106;1961940;-72
2021/05/19 03:13:20;;;;;;;13.77;11.06;;;;;;;;;;365496;109;1961940;-71
2021/05/19 03:14:26;;;;;;;15.55;12.08;;;;;;;;;;374247;107;1964040;-69
2021/05/19 03:15:32;;;;;;;16.41;12.12;;;;;;;;;;366596;107;2962093;-70
2021/05/19 03:16:46;;;;;;;22.03;14.78;;;;;;;;;;392328;104;1985982;-69
2021/05/19 03:17:52;;;;;;;16.05;12.39;;;;;;;;;;320478;106;2892937;-72
2021/05/19 03:18:57;;;;;;;17.23;11.74;;;;;;;;;;328192;108;1962017;-71
2021/05/19 03:20:04;;;;;;;15.04;10.86;;;;;;;;;;359949;110;1961989;-71
2021/05/19 03:21:09;;;;;;;17.33;12.03;;;;;;;;;;366467;109;1962020;-71
2021/05/19 03:22:14;;;;;;;16.20;11.75;;;;;;;;;;360032;112;1964066;-69
2021/05/19 03:23:19;;;;;;;17.05;12.41;;;;;;;;;;366127;110;1962083;-72
2021/05/19 03:24:25;;;;;;;16.38;12.03;;;;;;;;;;365810;108;1962087;-71
2021/05/19 03:25:30;;;;;;;16.12;12.62;;;;;;;;;;367438;108;1961966;-72
2021/05/19 03:26:36;;;;;;;18.80;12.53;;;;;;;;;;366757;108;1961979;-72
2021/05/19 03:27:42;;;;;;;17.35;12.42;;;;;;;;;;316739;112;2894943;-71
2021/05/19 03:28:48;;;;;;;16.49;12.54;;;;;;;;;;325721;110;1968939;-72
2021/05/19 03:29:53;;;;;;;19.06;13.35;;;;;;;;;;336446;110;1964911;-71
2021/05/19 03:30:58;;;;;;;16.34;13.01;;;;;;;;;;343589;109;1961991;-71
2021/05/19 03:32:05;;;;;;;17.02;12.21;;;;;;;;;;366350;107;1961997;-73
2021/05/19 03:33:37;;;;;;;17.68;12.75;;;;;;;;;;399448;101;1986013;-71
2021/05/19 03:34:42;;;;;;;18.02;13.41;;;;;;;;;;380115;104;1961981;-71
2021/05/19 03:35:47;;;;;;;16.48;11.86;;;;;;;;;;378184;105;1960727;-71
2021/05/19 03:36:53;;;;;;;15.96;11.61;;;;;;;;;;342803;105;2558905;-69
2021/05/19 03:37:58;;;;;;;15.16;10.83;;;;;;;;;;338390;104;1997888;-72
2021/05/19 03:39:05;;;;;;;15.59;12.06;;;;;;;;;;337788;103;2008683;-73
2021/05/19 03:40:11;;;;;;;15.69;12.01;;;;;;;;;;382741;104;1963026;-70
2021/05/19 03:41:17;;;;;;;15.53;12.04;;;;;;;;;;372058;107;1962910;-72
2021/05/19 03:42:22;;;;;;;22.38;14.18;;;;;;;;;;373208;107;1961066;-71
2021/05/19 03:43:28;;;;;;;15.47;11.52;;;;;;;;;;316355;104;2170937;-72
2021/05/19 03:44:34;;;;;;;15.63;12.39;;;;;;;;;;347860;104;1961905;-73
2021/05/19 03:45:39;;;;;;;15.49;12.72;;;;;;;;;;362318;104;1962988;-72
2021/05/19 03:46:45;;;;;;;17.32;13.09;;;;;;;;;;380770;104;1961976;-74
2021/05/19 03:47:52;;;;;;;18.63;13.47;;;;;;;;;;378105;105;1964039;-73
2021/05/19 03:48:58;;;;;;;15.82;13.13;;;;;;;;;;377983;105;1961978;-73
2021/05/19 03:50:06;;;;;;;19.01;13.18;;;;;;;;;;310287;105;2217908;-73
2021/05/19 03:51:11;;;;;;;18.23;12.87;;;;;;;;;;379200;104;1962020;-73
2021/05/19 03:52:32;;;;;;;17.17;13.07;;;;;;;;;;360529;104;2507962;-72
2021/05/19 03:53:40;;;;;;;18.19;13.60;;;;;;;;;;373231;107;1961864;-72
2021/05/19 03:54:45;;;;;;;16.28;12.88;;;;;;;;;;371234;108;1962018;-74
2021/05/19 03:55:50;;;;;;;19.49;13.37;;;;;;;;;;370800;109;1962982;-73
2021/05/19 03:56:55;;;;;;;20.14;15.27;;;;;;;;;;361277;111;1961982;-72
2021/05/19 03:58:26;;;;;;;19.06;13.87;;;;;;;;;;394967;103;1987000;-73
2021/05/19 03:59:32;;;;;;;18.76;12.87;;;;;;;;;;369035;107;1961947;-70
2021/05/19 04:00:39;;;;;;;20.21;13.32;;;;;;;;;;375041;107;1962858;-71
2021/05/19 04:01:44;;;;;;;18.32;13.01;;;;;;;;;;335759;108;2579001;-72
2021/05/19 04:02:50;;;;;;;18.26;13.32;;;;;;;;;;315649;107;2127971;-72
2021/05/19 04:04:25;;;;;;;23.40;15.29;;;;;;;;;;370595;103;2375904;-73
2021/05/19 04:05:32;;;;;;;20.03;14.64;;;;;;;;;;327247;107;2035930;-72
2021/05/19 04:06:37;;;;;;;19.81;14.60;;;;;;;;;;378184;106;1962060;-70
2021/05/19 04:07:42;;;;;;;22.24;14.45;;;;;;;;;;376241;106;1961976;-72
2021/05/19 04:08:47;;;;;;;21.11;15.38;;;;;;;;;;372825;108;1962022;-72
2021/05/19 04:09:52;;;;;;;26.74;16.43;;;;;;;;;;374428;107;1960645;-72
2021/05/19 04:10:57;;;;;;;21.81;15.34;;;;;;;;;;373585;107;1960889;-73
2021/05/19 04:12:03;;;;;;;22.81;15.44;;;;;;;;;;372137;105;1960725;-72
2021/05/19 04:13:08;;;;;;;19.50;14.82;;;;;;;;;;370251;107;1960830;-73
2021/05/19 04:14:15;;;;;;;37.49;16.71;;;;;;;;;;372327;107;1960808;-73
2021/05/19 04:15:22;;;;;;;25.38;16.71;;;;;;;;;;332959;108;2648964;-73
2021/05/19 04:16:41;;;;;;;21.79;15.79;;;;;;;;;;364320;110;1962105;-73
2021/05/19 04:17:53;;;;;;;23.97;15.96;;;;;;;;;;333865;111;1966934;-73
2021/05/19 04:19:05;;;;;;;22.63;15.13;;;;;;;;;;342870;116;1962013;-73
2021/05/19 04:20:12;;;;;;;21.89;15.90;;;;;;;;;;318333;110;2639947;-73
2021/05/19 04:21:17;;;;;;;20.50;14.74;;;;;;;;;;358123;112;1961995;-73
2021/05/19 04:22:31;;;;;;;23.11;14.72;;;;;;;;;;360269;103;2551988;-72
2021/05/19 04:23:36;;;;;;;21.21;14.71;;;;;;;;;;327600;108;2007986;-73
2021/05/19 04:24:41;;;;;;;21.61;15.19;;;;;;;;;;312500;109;2090964;-71
2021/05/19 04:25:46;;;;;;;24.38;17.29;;;;;;;;;;311349;110;2115975;-72
2021/05/19 04:26:51;;;;;;;21.79;16.65;;;;;;;;;;301643;110;2126933;-73
2021/05/19 04:27:56;;;;;;;26.68;19.46;;;;;;;;;;302876;113;2087134;-73
2021/05/19 04:29:08;;;;;;;30.77;19.06;;;;;;;;;;396256;103;1986033;-74
2021/05/19 04:30:14;;;;;;;20.53;15.98;;;;;;;;;;362352;111;1967818;-73
2021/05/19 04:31:19;;;;;;;22.98;15.41;;;;;;;;;;358678;110;1960875;-72
2021/05/19 04:32:24;;;;;;;22.39;15.31;;;;;;;;;;356827;113;1961854;-73
2021/05/19 04:33:29;;;;;;;19.64;15.22;;;;;;;;;;357901;112;1962012;-72
2021/05/19 04:34:37;;;;;;;20.82;15.16;;;;;;;;;;356484;112;1964053;-74
2021/05/19 04:35:42;;;;;;;21.36;14.79;;;;;;;;;;328014;112;2504895;-72
2021/05/19 04:36:47;;;;;;;20.93;15.37;;;;;;;;;;313290;112;2029913;-72
2021/05/19 04:37:52;;;;;;;24.59;16.15;;;;;;;;;;308508;114;2031905;-72
2021/05/19 04:38:57;;;;;;;21.85;16.24;;;;;;;;;;328507;108;1983659;-71
2021/05/19 04:40:07;;;;;;;19.72;14.61;;;;;;;;;;324117;108;2067955;-73
2021/05/19 04:41:12;;;;;;;21.71;15.13;;;;;;;;;;329232;106;2766979;-73
2021/05/19 04:42:18;;;;;;;19.74;15.46;;;;;;;;;;312616;107;2123947;-73
2021/05/19 04:43:23;;;;;;;17.81;14.08;;;;;;;;;;330263;109;1962092;-74
2021/05/19 04:44:29;;;;;;;19.61;14.60;;;;;;;;;;318661;118;1962080;-74
2021/05/19 04:45:34;;;;;;;21.55;15.21;;;;;;;;;;342777;117;1962003;-74
2021/05/19 04:46:40;;;;;;;20.34;14.67;;;;;;;;;;336779;119;1961984;-74
2021/05/19 04:47:45;;;;;;;22.77;17.04;;;;;;;;;;336382;119;1961965;-74
2021/05/19 04:49:00;;;;;;;18.98;14.79;;;;;;;;;;335661;119;1961950;-75
2021/05/19 04:50:06;;;;;;;17.20;13.93;;;;;;;;;;340048;117;1961997;-76
2021/05/19 04:51:12;;;;;;;18.54;13.82;;;;;;;;;;343444;118;1962825;-75
2021/05/19 04:52:17;;;;;;;17.77;13.27;;;;;;;;;;344878;117;1961956;-75
2021/05/19 04:53:24;;;;;;;18.82;13.58;;;;;;;;;;299768;117;2751926;-75
2021/05/19 04:54:29;;;;;;;18.95;13.98;;;;;;;;;;288310;117;2143849;-74
2021/05/19 04:55:36;;;;;;;16.83;12.97;;;;;;;;;;300463;117;1993007;-73
2021/05/19 04:56:44;;;;;;;16.38;12.95;;;;;;;;;;313178;117;2521030;-74
2021/05/19 04:57:50;;;;;;;19.37;13.08;;;;;;;;;;308890;117;1961882;-74
2021/05/19 04:58:55;;;;;;;20.39;14.01;;;;;;;;;;332735;117;1961967;-74
2021/05/19 05:00:07;;;;;;;18.17;13.91;;;;;;;;;;403346;101;1986005;-73
2021/05/19 05:01:12;;;;;;;17.10;13.33;;;;;;;;;;383068;103;1962035;-73
2021/05/19 05:02:17;;;;;;;16.56;13.92;;;;;;;;;;382970;103;1961048;-74
2021/05/19 05:03:23;;;;;;;17.08;12.64;;;;;;;;;;376110;105;1962939;-74
2021/05/19 05:04:29;;;;;;;16.51;13.18;;;;;;;;;;354802;113;1961945;-74
2021/05/19 05:05:34;;;;;;;15.31;11.86;;;;;;;;;;349160;114;1963992;-71
2021/05/19 05:06:40;;;;;;;16.28;12.35;;;;;;;;;;322119;114;2433917;-73
2021/05/19 05:07:45;;;;;;;15.33;12.08;;;;;;;;;;327825;114;1962003;-74
2021/05/19 05:09:16;;;;;;;15.59;12.40;;;;;;;;;;412998;99;1988803;-73
2021/05/19 05:10:21;;;;;;;16.11;12.78;;;;;;;;;;394446;101;1962907;-72
2021/05/19 05:11:26;;;;;;;16.51;12.42;;;;;;;;;;395135;101;1961957;-74
2021/05/19 05:12:32;;;;;;;16.40;12.72;;;;;;;;;;396278;101;1964870;-73
2021/05/19 05:13:37;;;;;;;17.26;12.74;;;;;;;;;;383058;101;1962195;-74
2021/05/19 05:14:42;;;;;;;14.91;11.31;;;;;;;;;;360941;110;1960993;-74
2021/05/19 05:15:50;;;;;;;15.91;11.01;;;;;;;;;;366704;108;1963957;-73
2021/05/19 05:16:55;;;;;;;12.94;9.96;;;;;;;;;;364707;109;1961946;-74
2021/05/19 05:18:01;;;;;;;12.49;10.15;;;;;;;;;;317265;111;2744917;-74
2021/05/19 05:19:06;;;;;;;12.73;9.74;;;;;;;;;;316628;111;2044887;-74
2021/05/19 05:20:12;;;;;;;10.67;7.97;;;;;;;;;;344725;111;1961960;-73
2021/05/19 05:21:18;;;;;;;12.18;9.29;;;;;;;;;;367510;110;1962022;-75
2021/05/19 05:22:23;;;;;;;11.43;8.14;;;;;;;;;;365768;109;1963981;-74
2021/05/19 05:23:29;;;;;;;12.42;8.48;;;;;;;;;;369608;107;1960791;-74
2021/05/19 05:24:45;;;;;;;10.19;7.08;;;;;;;;;;371486;107;1960980;-73
2021/05/19 05:25:50;;;;;;;12.77;6.93;;;;;;;;;;387160;104;1962012;-73
2021/05/19 05:26:55;;;;;;;11.37;8.02;;;;;;;;;;386684;105;1963077;-72
2021/05/19 05:28:01;;;;;;;11.18;7.80;;;;;;;;;;386740;104;1961965;-72
2021/05/19 05:29:06;;;;;;;10.74;7.85;;;;;;;;;;381665;104;1961976;-73
2021/05/19 05:30:35;;;;;;;10.91;7.40;;;;;;;;;;396655;104;1986020;-74
2021/05/19 05:31:40;;;;;;;14.21;8.02;;;;;;;;;;370026;108;1961947;-75
2021/05/19 05:32:45;;;;;;;12.18;7.77;;;;;;;;;;373098;107;1961902;-74
2021/05/19 05:33:51;;;;;;;11.48;8.20;;;;;;;;;;375010;107;1961928;-74
2021/05/19 05:34:56;;;;;;;11.89;8.63;;;;;;;;;;367535;110;1961926;-73
2021/05/19 05:36:01;;;;;;;12.83;8.82;;;;;;;;;;368606;107;1962977;-74
2021/05/19 05:37:06;;;;;;;9.27;6.62;;;;;;;;;;373167;107;1961931;-74
2021/05/19 05:38:18;;;;;;;10.08;6.87;;;;;;;;;;384401;105;1986969;-74
2021/05/19 05:39:34;;;;;;;8.87;6.57;;;;;;;;;;316726;110;2792934;-73
2021/05/19 05:40:40;;;;;;;9.14;6.64;;;;;;;;;;367913;108;1961991;-74
2021/05/19 05:41:59;;;;;;;9.51;6.42;;;;;;;;;;368932;108;1960875;-74
2021/05/19 05:43:04;;;;;;;9.19;6.02;;;;;;;;;;339376;107;2563941;-73
2021/05/19 05:44:09;;;;;;;9.33;6.64;;;;;;;;;;329426;107;2025974;-74
2021/05/19 05:45:40;;;;;;;11.18;8.18;;;;;;;;;;415230;99;1989922;-72
2021/05/19 05:46:46;;;;;;;11.79;8.11;;;;;;;;;;396323;101;1963035;-73
2021/05/19 05:47:51;;;;;;;13.19;8.76;;;;;;;;;;393932;101;1963047;-73
2021/05/19 05:48:58;;;;;;;14.01;8.66;;;;;;;;;;390116;103;1963012;-74
2021/05/19 05:50:04;;;;;;;11.88;8.67;;;;;;;;;;391751;101;1961963;-74
2021/05/19 05:51:10;;;;;;;15.97;9.54;;;;;;;;;;348633;101;2689978;-74
2021/05/19 05:52:15;;;;;;;13.24;10.11;;;;;;;;;;336624;103;2100946;-74
2021/05/19 05:53:23;;;;;;;12.59;10.00;;;;;;;;;;349815;102;1967012;-73
2021/05/19 05:54:28;;;;;;;12.11;8.94;;;;;;;;;;387741;102;1962044;-73
2021/05/19 05:55:33;;;;;;;9.77;7.29;;;;;;;;;;389874;103;1961976;-74
2021/05/19 05:56:41;;;;;;;11.59;7.76;;;;;;;;;;380421;103;2949939;-73
2021/05/19 05:57:52;;;;;;;13.23;8.20;;;;;;;;;;387914;106;1964959;-73
2021/05/19 05:58:57;;;;;;;11.96;7.74;;;;;;;;;;362829;110;1961933;-74
2021/05/19 06:00:08;;;;;;;12.21;8.37;;;;;;;;;;360111;109;1961981;-73
2021/05/19 06:01:20;;;;;;;9.82;7.04;;;;;;;;;;355234;109;1960824;-76
2021/05/19 06:02:25;;;;;;;11.26;7.73;;;;;;;;;;362070;109;1962996;-73
2021/05/19 06:03:30;;;;;;;11.34;7.91;;;;;;;;;;369165;107;1962910;-74
2021/05/19 06:04:36;;;;;;;13.40;9.00;;;;;;;;;;369348;109;1962006;-73
2021/05/19 06:05:41;;;;;;;14.78;8.94;;;;;;;;;;359710;111;1963010;-73
2021/05/19 06:06:47;;;;;;;11.23;8.01;;;;;;;;;;321786;109;2715952;-73
2021/05/19 06:07:52;;;;;;;11.34;8.79;;;;;;;;;;318841;111;2050974;-74
2021/05/19 06:09:06;;;;;;;13.08;8.47;;;;;;;;;;395362;104;1985794;-72
2021/05/19 06:10:12;;;;;;;15.98;9.01;;;;;;;;;;373115;107;1962938;-73
2021/05/19 06:11:18;;;;;;;12.12;9.52;;;;;;;;;;337875;105;2652052;-73
2021/05/19 06:12:23;;;;;;;14.85;9.36;;;;;;;;;;333732;106;2039869;-73
2021/05/19 06:13:28;;;;;;;16.03;9.69;;;;;;;;;;346224;105;1961985;-74
2021/05/19 06:14:34;;;;;;;14.59;10.47;;;;;;;;;;336777;105;2017973;-73
2021/05/19 06:15:39;;;;;;;16.74;10.61;;;;;;;;;;379631;105;1962036;-74
2021/05/19 06:16:46;;;;;;;15.27;10.41;;;;;;;;;;378289;105;1961919;-73
2021/05/19 06:17:51;;;;;;;16.58;11.27;;;;;;;;;;378797;105;1962878;-73
2021/05/19 06:18:56;;;;;;;16.19;11.28;;;;;;;;;;378535;105;1962997;-73
2021/05/19 06:20:02;;;;;;;13.54;8.99;;;;;;;;;;379399;105;1962915;-73
2021/05/19 06:21:08;;;;;;;15.11;10.23;;;;;;;;;;361717;111;1961893;-73
2021/05/19 06:22:13;;;;;;;13.94;10.33;;;;;;;;;;360405;110;2963003;-73
2021/05/19 06:23:19;;;;;;;14.79;10.97;;;;;;;;;;315520;110;2868017;-73
2021/05/19 06:24:25;;;;;;;16.48;11.71;;;;;;;;;;320468;110;2068948;-73
2021/05/19 06:25:34;;;;;;;16.38;11.84;;;;;;;;;;363881;108;1961954;-73
2021/05/19 06:26:40;;;;;;;14.52;10.47;;;;;;;;;;336355;110;2499965;-73
2021/05/19 06:27:45;;;;;;;14.24;11.18;;;;;;;;;;302857;109;2229972;-73